createdAt,value
2022-09-20T00:04:49.969Z,93.39
2022-09-20T00:09:51.434Z,94.34
2022-09-20T00:14:52.852Z,93.71
2022-09-20T00:19:54.290Z,93.89
2022-09-20T00:24:55.710Z,93.14
2022-09-20T00:29:58.766Z,92.71
2022-09-20T00:35:10.645Z,92.94
2022-09-20T00:40:17.420Z,92.90
2022-09-20T00:45:25.229Z,93.03
2022-09-20T00:50:36.808Z,92.72
2022-09-20T00:55:43.327Z,91.50
2022-09-20T01:00:46.783Z,92.56
2022-09-20T01:05:50.466Z,91.44
2022-09-20T01:10:52.955Z,91.24
2022-09-20T01:15:56.305Z,91.40
2022-09-20T01:20:59.139Z,91.10
2022-09-20T01:26:28.739Z,90.73
2022-09-20T01:31:36.417Z,90.99
2022-09-20T01:36:54.234Z,89.60
2022-09-20T01:42:02.040Z,90.58
2022-09-20T01:47:30.078Z,90.48
2022-09-20T01:53:03.380Z,91.39
2022-09-20T01:58:32.559Z,91.16
2022-09-20T02:03:36.625Z,91.68
2022-09-20T02:08:56.624Z,91.86
2022-09-20T02:14:08.180Z,90.80
2022-09-20T02:19:21.791Z,90.14
2022-09-20T02:24:33.712Z,90.96
2022-09-20T02:29:53.628Z,90.08
2022-09-20T02:35:13.551Z,90.11
2022-09-20T02:40:27.392Z,90.83
2022-09-20T02:45:43.065Z,90.62
2022-09-20T02:51:26.472Z,90.27
2022-09-20T02:56:46.800Z,90.30
2022-09-20T03:02:03.637Z,90.56
2022-09-20T03:07:37.155Z,90.72
2022-09-20T03:13:14.541Z,91.87
2022-09-20T03:18:29.297Z,91.26
2022-09-20T03:24:01.827Z,91.81
2022-09-20T03:29:37.133Z,91.94
2022-09-20T03:35:00.182Z,92.53
2022-09-20T03:40:26.069Z,91.95
2022-09-20T03:45:40.265Z,91.83
2022-09-20T03:50:41.651Z,92.73
2022-09-20T03:56:08.142Z,93.03
2022-09-20T04:01:29.848Z,92.70
2022-09-20T04:06:59.198Z,91.75
2022-09-20T04:12:24.314Z,93.13
2022-09-20T04:17:45.203Z,94.22
2022-09-20T04:22:51.410Z,95.33
2022-09-20T04:28:02.779Z,95.13
2022-09-20T04:33:26.574Z,95.41
2022-09-20T04:38:28.465Z,96.21
2022-09-20T04:43:52.298Z,96.38
2022-09-20T04:49:16.748Z,96.76
2022-09-20T04:54:18.089Z,95.27
2022-09-20T04:59:38.571Z,95.86
2022-09-20T05:05:10.670Z,97.41
2022-09-20T05:10:15.415Z,97.36
2022-09-20T05:15:47.528Z,95.90
2022-09-20T05:20:51.660Z,95.77
2022-09-20T05:26:39.035Z,96.53
2022-09-20T05:32:08.541Z,97.55
2022-09-20T05:37:44.241Z,97.91
2022-09-20T05:43:11.239Z,95.81
2022-09-20T05:48:46.836Z,96.67
2022-09-20T05:54:10.035Z,95.90
2022-09-20T05:59:38.571Z,95.90
2022-09-20T06:04:52.634Z,94.04
2022-09-20T06:10:09.300Z,96.13
2022-09-20T06:15:26.411Z,94.81
2022-09-20T06:20:39.467Z,93.99
2022-09-20T06:25:53.663Z,93.70
2022-09-20T06:30:57.222Z,92.19
2022-09-20T06:36:40.715Z,92.92
2022-09-20T06:41:43.136Z,92.26
2022-09-20T06:46:44.587Z,91.74
2022-09-20T06:51:46.849Z,90.71
2022-09-20T06:56:50.428Z,89.39
2022-09-20T07:01:52.325Z,88.92
2022-09-20T07:07:00.913Z,90.28
2022-09-20T07:12:02.570Z,90.10
2022-09-20T07:17:04.318Z,90.38
2022-09-20T07:22:05.761Z,89.60
2022-09-20T07:27:07.231Z,88.99
2022-09-20T07:32:08.692Z,89.53
2022-09-20T07:37:10.118Z,88.96
2022-09-20T07:42:12.473Z,88.05
2022-09-20T07:47:15.049Z,85.39
2022-09-20T07:52:17.552Z,85.22
2022-09-20T07:57:19.085Z,84.44
2022-09-20T08:02:20.589Z,84.93
2022-09-20T08:07:22.086Z,84.67
2022-09-20T08:17:47.362Z,82.29
2022-09-20T08:23:06.309Z,80.57
2022-09-20T08:28:10.145Z,78.19
2022-09-20T08:33:12.892Z,80.57
2022-09-20T08:43:39.762Z,78.00
2022-09-20T08:48:41.811Z,77.20
2022-09-20T08:53:49.234Z,75.73
2022-09-20T08:58:51.056Z,75.61
2022-09-20T09:03:59.230Z,74.59
2022-09-20T09:09:00.766Z,75.19
2022-09-20T09:14:27.213Z,75.48
2022-09-20T09:19:34.543Z,75.47
2022-09-20T09:24:36.041Z,76.67
2022-09-20T09:29:49.491Z,75.86
2022-09-20T09:34:51.259Z,76.37
2022-09-20T09:40:19.268Z,75.08
2022-09-20T09:45:36.066Z,75.00
2022-09-20T09:50:37.614Z,76.51
2022-09-20T09:55:53.615Z,76.88
2022-09-20T10:00:58.349Z,73.97
2022-09-20T10:06:21.466Z,74.38
2022-09-20T10:11:42.013Z,72.32
2022-09-20T10:17:11.125Z,70.98
2022-09-20T10:23:06.827Z,71.00
2022-09-20T10:28:25.147Z,71.77
2022-09-20T10:33:38.272Z,70.91
2022-09-20T10:38:50.468Z,69.57
2022-09-20T10:44:05.149Z,70.48
2022-09-20T10:49:43.064Z,69.10
2022-09-20T10:54:58.636Z,68.67
2022-09-20T11:00:18.936Z,69.08
2022-09-20T11:05:29.840Z,68.34
2022-09-20T11:10:42.993Z,67.18
2022-09-20T11:15:59.654Z,67.13
2022-09-20T11:21:24.416Z,66.48
2022-09-20T11:26:36.891Z,66.13
2022-09-20T11:31:43.409Z,67.68
2022-09-20T11:36:58.824Z,65.50
2022-09-20T11:42:02.219Z,67.26
2022-09-20T11:47:06.638Z,67.73
2022-09-20T11:52:37.205Z,68.52
2022-09-20T11:57:39.553Z,67.78
2022-09-20T12:02:53.434Z,67.03
2022-09-20T12:07:58.352Z,67.43
2022-09-20T12:13:08.445Z,69.15
2022-09-20T12:18:27.408Z,70.94
2022-09-20T12:23:40.845Z,74.21
2022-09-20T12:28:44.685Z,75.79
2022-09-20T12:33:59.244Z,76.87
2022-09-20T12:39:16.233Z,77.81
2022-09-20T12:44:23.755Z,78.37
2022-09-20T12:49:52.447Z,78.00
2022-09-20T12:54:56.369Z,77.98
2022-09-20T13:00:02.024Z,77.20
2022-09-20T13:05:03.615Z,77.88
2022-09-20T13:10:18.173Z,77.21
2022-09-20T13:15:21.830Z,77.13
2022-09-20T13:20:34.680Z,77.18
2022-09-20T13:25:39.112Z,77.03
2022-09-20T13:30:42.323Z,75.76
2022-09-20T13:35:48.277Z,74.50
2022-09-20T13:40:51.589Z,73.90
2022-09-20T13:45:58.976Z,73.10
2022-09-20T13:51:00.672Z,72.44
2022-09-20T13:56:11.623Z,73.18
2022-09-20T14:01:29.223Z,73.95
2022-09-20T14:06:31.877Z,72.91
2022-09-20T14:11:34.026Z,72.06
2022-09-20T14:16:40.965Z,71.58
2022-09-20T14:21:43.814Z,71.14
2022-09-20T14:27:02.170Z,70.14
2022-09-20T14:32:11.012Z,69.45
2022-09-20T14:37:22.290Z,70.35
2022-09-20T14:42:31.392Z,70.55
2022-09-20T14:47:38.429Z,70.61
2022-09-20T14:52:43.672Z,68.32
2022-09-20T14:57:47.105Z,69.89
2022-09-20T15:02:48.578Z,68.88
2022-09-20T15:07:50.380Z,68.32
2022-09-20T15:12:51.849Z,69.76
2022-09-20T15:17:53.323Z,69.23
2022-09-20T15:22:56.366Z,69.94
2022-09-20T15:27:59.124Z,70.17
2022-09-20T15:33:03.068Z,70.41
2022-09-20T15:38:05.637Z,71.06
2022-09-20T15:43:09.457Z,68.34
2022-09-20T15:48:11.480Z,66.10
2022-09-20T15:53:12.973Z,64.69
2022-09-20T15:58:14.864Z,65.66
2022-09-20T16:03:17.490Z,67.24
2022-09-20T16:08:19.191Z,67.02
2022-09-20T16:13:20.698Z,66.62
2022-09-20T16:18:40.896Z,67.59
2022-09-20T16:23:46.785Z,68.48
2022-09-20T16:28:49.194Z,69.28
2022-09-20T16:33:50.616Z,69.92
2022-09-20T16:38:55.285Z,72.33
2022-09-20T16:43:56.906Z,72.73
2022-09-20T16:49:01.025Z,74.81
2022-09-20T16:54:07.627Z,74.22
2022-09-20T16:59:10.698Z,74.90
2022-09-20T17:04:14.301Z,74.83
2022-09-20T17:09:16.510Z,74.95
2022-09-20T17:14:20.367Z,74.67
2022-09-20T17:19:21.875Z,74.88
2022-09-20T17:24:24.811Z,75.38
2022-09-20T17:29:27.609Z,75.77
2022-09-20T17:34:29.979Z,75.56
2022-09-20T17:39:31.442Z,76.36
2022-09-20T17:44:37.545Z,76.91
2022-09-20T17:49:40.633Z,77.61
2022-09-20T17:54:42.169Z,77.61
2022-09-20T17:59:43.689Z,77.67
2022-09-20T18:04:45.349Z,78.18
2022-09-20T18:09:47.233Z,78.32
2022-09-20T18:14:48.636Z,78.41
2022-09-20T18:19:50.030Z,78.79
2022-09-20T18:24:51.487Z,79.37
2022-09-20T18:29:52.903Z,79.55
2022-09-20T18:34:54.303Z,79.51
2022-09-20T18:39:55.734Z,81.03
2022-09-20T18:44:58.572Z,81.25
2022-09-20T18:49:59.966Z,80.94
2022-09-20T18:55:06.117Z,81.24
2022-09-20T19:00:09.402Z,81.63
2022-09-20T19:05:21.079Z,81.75
2022-09-20T19:10:59.173Z,82.11
2022-09-20T19:16:15.440Z,82.35
2022-09-20T19:21:26.154Z,82.49
2022-09-20T19:26:29.877Z,82.91
2022-09-20T19:31:33.826Z,83.97
2022-09-20T19:36:57.237Z,83.64
2022-09-20T19:42:24.471Z,83.97
2022-09-20T19:47:45.735Z,84.37
2022-09-20T19:52:47.436Z,84.35
2022-09-20T19:57:49.311Z,84.83
2022-09-20T20:02:51.074Z,85.48
2022-09-20T20:08:04.646Z,85.16
2022-09-20T20:13:25.970Z,84.84
2022-09-20T20:18:40.562Z,84.63
2022-09-20T20:24:20.600Z,85.17
2022-09-20T20:29:22.106Z,85.97
2022-09-20T20:34:24.400Z,86.06
2022-09-20T20:39:27.080Z,86.94
2022-09-20T20:44:34.982Z,86.50
2022-09-20T20:49:36.504Z,86.56
2022-09-20T20:54:37.956Z,87.81
2022-09-20T20:59:39.355Z,87.32
2022-09-20T21:04:41.140Z,88.30
2022-09-20T21:09:42.550Z,87.44
2022-09-20T21:14:44.573Z,87.87
2022-09-20T21:19:45.980Z,87.73
2022-09-20T21:24:47.377Z,88.25
2022-09-20T21:29:48.817Z,87.58
2022-09-20T21:34:50.237Z,87.69
2022-09-20T21:39:51.706Z,87.58
2022-09-20T21:44:53.146Z,87.79
2022-09-20T21:49:54.968Z,87.83
2022-09-20T21:54:56.362Z,87.66
2022-09-20T21:59:57.755Z,87.75
2022-09-20T22:04:59.139Z,88.93
2022-09-20T22:10:00.531Z,89.06
2022-09-20T22:15:01.947Z,88.61
2022-09-20T22:20:04.372Z,89.17
2022-09-20T22:25:06.273Z,89.25
2022-09-20T22:30:08.376Z,89.01
2022-09-20T22:35:10.184Z,89.39
2022-09-20T22:40:11.724Z,89.16
2022-09-20T22:45:13.312Z,90.02
2022-09-20T22:50:14.821Z,89.40
2022-09-20T22:55:16.265Z,90.11
2022-09-20T23:00:17.756Z,89.18
2022-09-20T23:05:19.224Z,89.87
2022-09-20T23:10:20.675Z,89.66
2022-09-20T23:15:22.147Z,89.18
2022-09-20T23:20:23.544Z,89.03
2022-09-20T23:25:24.959Z,89.51
2022-09-20T23:30:26.376Z,89.26
2022-09-20T23:35:27.820Z,90.28
2022-09-20T23:40:29.628Z,90.50
2022-09-20T23:45:31.147Z,90.84
2022-09-20T23:50:32.684Z,91.16
2022-09-20T23:55:34.192Z,90.77
